createdAt,value
2019-05-07T00:01:33.915Z,97479.48
2019-05-07T00:06:35.118Z,97477.66
2019-05-07T00:11:36.763Z,97485.34
2019-05-07T00:16:42.021Z,97486.41
2019-05-07T00:21:43.160Z,97486.66
2019-05-07T00:26:44.629Z,97482.56
2019-05-07T00:31:46.203Z,97485.08
2019-05-07T00:37:02.701Z,97483.00
2019-05-07T00:42:08.745Z,97489.60
2019-05-07T00:47:10.203Z,97490.42
2019-05-07T00:52:14.046Z,97495.11
2019-05-07T00:57:15.051Z,97499.65
2019-05-07T01:02:16.526Z,97506.74
2019-05-07T01:07:19.198Z,97504.30
2019-05-07T01:12:22.333Z,97506.61
2019-05-07T01:17:24.031Z,97512.56
2019-05-07T01:22:25.918Z,97508.58
2019-05-07T01:27:27.692Z,97509.97
2019-05-07T01:32:42.420Z,97510.20
2019-05-07T01:37:43.587Z,97512.45
2019-05-07T01:42:45.074Z,97516.75
2019-05-07T01:47:46.699Z,97521.25
2019-05-07T01:52:48.174Z,97525.38
2019-05-07T01:57:49.659Z,97526.18
2019-05-07T02:02:55.867Z,97525.44
2019-05-07T02:07:59.252Z,97524.46
2019-05-07T02:13:02.315Z,97536.41
2019-05-07T02:18:04.158Z,97535.69
2019-05-07T02:23:05.778Z,97540.73
2019-05-07T02:28:07.250Z,97537.69
2019-05-07T02:33:08.723Z,97541.91
2019-05-07T02:38:13.879Z,97532.64
2019-05-07T02:43:16.013Z,97539.31
2019-05-07T02:48:19.436Z,97528.96
2019-05-07T02:53:22.954Z,97539.39
2019-05-07T02:58:24.473Z,97534.23
2019-05-07T03:03:26.050Z,97529.30
2019-05-07T03:08:27.923Z,97536.11
2019-05-07T03:13:29.501Z,97544.36
2019-05-07T03:18:33.404Z,97544.02
2019-05-07T03:23:42.645Z,97549.64
2019-05-07T03:28:53.610Z,97544.73
2019-05-07T03:33:56.543Z,97549.18
2019-05-07T03:38:58.480Z,97552.16
2019-05-07T03:44:03.749Z,97552.27
2019-05-07T03:49:07.305Z,97553.48
2019-05-07T03:54:09.884Z,97559.46
2019-05-07T03:59:13.027Z,97563.20
2019-05-07T04:04:14.610Z,97566.73
2019-05-07T04:09:16.089Z,97567.08
2019-05-07T04:14:17.659Z,97562.33
2019-05-07T04:19:19.218Z,97568.36
2019-05-07T04:24:23.603Z,97563.23
2019-05-07T04:29:25.206Z,97572.09
2019-05-07T04:34:45.051Z,97579.20
2019-05-07T04:39:48.443Z,97579.35
2019-05-07T04:44:53.733Z,97577.70
2019-05-07T04:49:53.910Z,97582.47
2019-05-07T04:54:55.605Z,97591.63
2019-05-07T04:59:58.260Z,97588.42
2019-05-07T05:05:02.535Z,97594.78
2019-05-07T05:10:06.483Z,97595.08
2019-05-07T05:15:08.663Z,97596.20
2019-05-07T05:20:13.112Z,97598.38
2019-05-07T05:25:15.318Z,97601.42
2019-05-07T05:30:21.974Z,97596.48
2019-05-07T05:35:23.655Z,97607.64
2019-05-07T05:40:25.244Z,97600.00
2019-05-07T05:45:33.496Z,97596.52
2019-05-07T05:50:37.351Z,97597.15
2019-05-07T05:55:39.530Z,97602.72
2019-05-07T06:00:42.286Z,97607.08
2019-05-07T06:05:52.254Z,97609.09
2019-05-07T06:11:02.187Z,97604.88
2019-05-07T06:16:08.414Z,97609.91
2019-05-07T06:21:28.505Z,97614.52
2019-05-07T06:26:31.898Z,97608.47
2019-05-07T06:31:33.503Z,97617.08
2019-05-07T06:36:38.042Z,97619.95
2019-05-07T06:41:58.370Z,97620.74
2019-05-07T06:47:02.310Z,97622.13
2019-05-07T06:52:03.540Z,97629.46
2019-05-07T06:57:05.428Z,97629.06
2019-05-07T07:02:27.205Z,97632.46
2019-05-07T07:07:36.559Z,97630.11
2019-05-07T07:12:34.723Z,97634.19
2019-05-07T07:17:36.606Z,97632.18
2019-05-07T07:22:38.201Z,97631.70
2019-05-07T07:27:39.845Z,97623.23
2019-05-07T07:32:43.274Z,97639.38
2019-05-07T07:37:44.852Z,97640.99
2019-05-07T07:42:46.494Z,97645.20
2019-05-07T07:47:49.169Z,97633.73
2019-05-07T07:52:52.989Z,97640.85
2019-05-07T07:57:54.378Z,97634.73
2019-05-07T08:02:57.859Z,97633.80
2019-05-07T08:07:59.349Z,97645.11
2019-05-07T08:13:01.984Z,97642.91
2019-05-07T08:18:03.959Z,97648.88
2019-05-07T08:23:05.647Z,97646.53
2019-05-07T08:28:07.182Z,97649.09
2019-05-07T08:33:14.604Z,97643.02
2019-05-07T08:38:14.243Z,97636.95
2019-05-07T08:43:15.746Z,97643.88
2019-05-07T08:48:23.101Z,97637.25
2019-05-07T08:53:24.588Z,97632.53
2019-05-07T08:58:26.170Z,97631.38
2019-05-07T09:03:43.317Z,97630.14
2019-05-07T09:08:45.212Z,97634.20
2019-05-07T09:13:47.913Z,97642.29
2019-05-07T09:18:49.479Z,97645.77
2019-05-07T09:23:52.328Z,97642.59
2019-05-07T09:29:02.663Z,97640.30
2019-05-07T09:34:04.618Z,97636.48
2019-05-07T09:39:07.316Z,97647.05
2019-05-07T09:44:08.874Z,97644.87
2019-05-07T09:49:12.023Z,97642.71
2019-05-07T09:54:13.789Z,97643.16
2019-05-07T09:59:15.428Z,97639.17
2019-05-07T10:04:17.199Z,97637.12
2019-05-07T10:09:18.779Z,97633.81
2019-05-07T10:14:22.383Z,97637.25
2019-05-07T10:19:24.767Z,97640.94
2019-05-07T10:24:26.471Z,97645.30
2019-05-07T10:29:28.287Z,97637.06
2019-05-07T10:34:29.905Z,97645.41
2019-05-07T10:39:32.529Z,97634.52
2019-05-07T10:44:53.353Z,97631.86
2019-05-07T10:50:13.651Z,97635.66
2019-05-07T10:55:15.933Z,97644.17
2019-05-07T11:00:23.619Z,97642.44
2019-05-07T11:05:25.174Z,97637.12
2019-05-07T11:10:26.856Z,97646.44
2019-05-07T11:15:28.538Z,97638.39
2019-05-07T11:20:31.981Z,97639.92
2019-05-07T11:25:34.011Z,97639.30
2019-05-07T11:30:35.727Z,97642.80
2019-05-07T11:35:37.276Z,97641.91
2019-05-07T11:40:39.055Z,97645.31
2019-05-07T11:45:54.610Z,97645.98
2019-05-07T11:51:03.274Z,97645.70
2019-05-07T11:55:59.786Z,97643.88
2019-05-07T12:01:04.482Z,97643.38
2019-05-07T12:06:06.045Z,97636.33
2019-05-07T12:11:07.984Z,97636.03
2019-05-07T12:16:12.078Z,97636.83
2019-05-07T12:21:20.627Z,97629.52
2019-05-07T12:26:16.633Z,97641.84
2019-05-07T12:31:20.043Z,97640.08
2019-05-07T12:36:22.739Z,97649.63
2019-05-07T12:41:33.760Z,97647.66
2019-05-07T12:46:35.963Z,97638.55
2019-05-07T12:51:42.741Z,97641.03
2019-05-07T12:56:44.339Z,97643.22
2019-05-07T13:01:54.106Z,97636.23
2019-05-07T13:07:02.489Z,97642.97
2019-05-07T13:12:04.792Z,97637.86
2019-05-07T13:17:07.446Z,97646.64
2019-05-07T13:22:09.220Z,97646.30
2019-05-07T13:27:11.003Z,97644.02
2019-05-07T13:32:14.514Z,97646.28
2019-05-07T13:37:28.013Z,97647.26
2019-05-07T13:42:38.209Z,97643.66
2019-05-07T13:47:40.598Z,97646.00
2019-05-07T13:52:43.623Z,97651.91
2019-05-07T13:57:45.287Z,97646.33
2019-05-07T14:02:48.175Z,97649.55
2019-05-07T14:07:49.958Z,97648.84
2019-05-07T14:12:52.207Z,97649.20
2019-05-07T14:17:55.056Z,97649.34
2019-05-07T14:22:56.891Z,97649.82
2019-05-07T14:27:58.923Z,97651.95
2019-05-07T14:33:06.119Z,97649.49
2019-05-07T14:38:18.824Z,97647.45
2019-05-07T14:43:25.232Z,97649.84
2019-05-07T14:48:26.815Z,97642.74
2019-05-07T14:53:28.567Z,97639.35
2019-05-07T14:58:31.870Z,97646.58
2019-05-07T15:03:33.847Z,97644.80
2019-05-07T15:08:35.838Z,97653.20
2019-05-07T15:13:37.987Z,97648.69
2019-05-07T15:18:54.174Z,97648.14
2019-05-07T15:23:56.344Z,97642.48
2019-05-07T15:29:00.085Z,97648.10
2019-05-07T15:34:02.975Z,97653.97
2019-05-07T15:39:04.969Z,97653.48
2019-05-07T15:44:08.480Z,97648.17
2019-05-07T15:49:12.387Z,97657.26
2019-05-07T15:54:13.597Z,97655.72
2019-05-07T15:59:22.343Z,97655.28
2019-05-07T16:04:26.056Z,97654.16
2019-05-07T16:09:29.633Z,97657.94
2019-05-07T16:14:32.127Z,97658.59
2019-05-07T16:19:33.974Z,97655.59
2019-05-07T16:24:35.485Z,97654.39
2019-05-07T16:29:37.084Z,97658.64
2019-05-07T16:34:38.806Z,97662.45
2019-05-07T16:39:42.118Z,97664.84
2019-05-07T16:44:43.819Z,97672.73
2019-05-07T16:49:46.428Z,97669.11
2019-05-07T16:54:47.932Z,97667.20
2019-05-07T16:59:49.578Z,97671.31
2019-05-07T17:05:12.163Z,97673.72
2019-05-07T17:10:13.960Z,97683.96
2019-05-07T17:15:16.449Z,97687.72
2019-05-07T17:20:18.930Z,97687.48
2019-05-07T17:25:38.585Z,97684.31
2019-05-07T17:30:42.099Z,97685.09
2019-05-07T17:35:46.092Z,97682.45
2019-05-07T17:40:47.654Z,97683.87
2019-05-07T17:45:52.059Z,97681.05
2019-05-07T17:50:58.725Z,97683.70
2019-05-07T17:56:02.109Z,97691.39
2019-05-07T18:01:05.627Z,97690.83
2019-05-07T18:06:07.502Z,97698.25
2019-05-07T18:11:20.232Z,97701.45
2019-05-07T18:16:32.624Z,97697.80
2019-05-07T18:21:34.379Z,97701.74
2019-05-07T18:26:36.167Z,97712.55
2019-05-07T18:31:51.548Z,97717.80
2019-05-07T18:36:53.237Z,97718.18
2019-05-07T18:41:54.715Z,97716.99
2019-05-07T18:46:56.290Z,97718.48
2019-05-07T18:51:57.768Z,97726.44
2019-05-07T18:57:02.339Z,97725.38
2019-05-07T19:02:04.987Z,97732.59
2019-05-07T19:07:06.879Z,97735.49
2019-05-07T19:12:12.888Z,97741.72
2019-05-07T19:17:13.974Z,97740.99
2019-05-07T19:22:15.555Z,97749.98
2019-05-07T19:27:17.206Z,97746.13
2019-05-07T19:32:19.100Z,97746.58
2019-05-07T19:37:22.353Z,97742.14
2019-05-07T19:42:24.056Z,97744.05
2019-05-07T19:47:25.636Z,97740.45
2019-05-07T19:52:27.101Z,97748.25
2019-05-07T19:57:33.496Z,97742.47
2019-05-07T20:02:37.065Z,97738.50
2019-05-07T20:07:38.768Z,97744.17
2019-05-07T20:12:42.864Z,97743.94
2019-05-07T20:17:44.511Z,97739.27
2019-05-07T20:22:46.331Z,97746.50
2019-05-07T20:27:47.854Z,97744.44
2019-05-07T20:32:49.572Z,97745.17
2019-05-07T20:37:52.078Z,97747.58
2019-05-07T20:42:53.797Z,97746.99
2019-05-07T20:47:55.281Z,97753.23
2019-05-07T20:52:56.754Z,97758.28
2019-05-07T20:57:58.341Z,97760.53
2019-05-07T21:03:12.560Z,97759.41
2019-05-07T21:08:15.744Z,97766.69
2019-05-07T21:13:27.427Z,97770.94
2019-05-07T21:18:22.952Z,97772.55
2019-05-07T21:23:24.126Z,97774.48
2019-05-07T21:28:26.095Z,97779.25
2019-05-07T21:33:27.706Z,97779.53
2019-05-07T21:38:29.322Z,97772.35
2019-05-07T21:43:32.674Z,97777.64
2019-05-07T21:48:34.378Z,97773.73
2019-05-07T21:53:37.758Z,97778.11
2019-05-07T21:58:46.939Z,97778.97
2019-05-07T22:03:52.388Z,97779.63
2019-05-07T22:08:54.832Z,97781.44
2019-05-07T22:13:57.720Z,97776.44
2019-05-07T22:18:59.335Z,97774.72
2019-05-07T22:24:02.796Z,97771.66
2019-05-07T22:29:04.334Z,97775.25
2019-05-07T22:34:13.786Z,97773.89
2019-05-07T22:39:15.405Z,97770.16
2019-05-07T22:44:18.776Z,97770.53
2019-05-07T22:49:22.727Z,97764.23
2019-05-07T22:54:23.730Z,97761.06
2019-05-07T22:59:25.469Z,97757.52
2019-05-07T23:04:26.948Z,97762.73
2019-05-07T23:09:28.566Z,97760.95
2019-05-07T23:14:30.147Z,97760.02
2019-05-07T23:19:32.714Z,97761.32
2019-05-07T23:24:34.334Z,97753.31
2019-05-07T23:29:35.808Z,97756.95
2019-05-07T23:34:37.287Z,97750.36
2019-05-07T23:39:42.381Z,97752.73
2019-05-07T23:44:44.198Z,97761.28
2019-05-07T23:49:45.719Z,97762.80
2019-05-07T23:54:47.196Z,97754.74
2019-05-07T23:59:48.663Z,97754.69
